createdAt,value
2019-01-29T00:00:46.442Z,1.32
2019-01-29T00:01:52.862Z,1.24
2019-01-29T00:02:59.292Z,1.23
2019-01-29T00:04:04.939Z,1.27
2019-01-29T00:05:11.703Z,1.35
2019-01-29T00:06:18.547Z,1.48
2019-01-29T00:07:24.958Z,1.45
2019-01-29T00:08:31.349Z,1.33
2019-01-29T00:09:38.001Z,1.28
2019-01-29T00:10:44.414Z,1.26
2019-01-29T00:11:50.797Z,1.29
2019-01-29T00:12:57.142Z,1.23
2019-01-29T00:14:02.864Z,1.23
2019-01-29T00:15:08.280Z,1.29
2019-01-29T00:16:14.265Z,1.29
2019-01-29T00:17:21.381Z,1.29
2019-01-29T00:18:27.899Z,1.24
2019-01-29T00:19:34.231Z,1.27
2019-01-29T00:20:40.277Z,1.19
2019-01-29T00:21:46.676Z,1.17
2019-01-29T00:22:53.068Z,1.17
2019-01-29T00:23:59.497Z,1.20
2019-01-29T00:25:05.958Z,1.26
2019-01-29T00:26:12.306Z,1.14
2019-01-29T00:27:18.985Z,1.13
2019-01-29T00:28:25.354Z,1.22
2019-01-29T00:29:31.732Z,1.15
2019-01-29T00:30:38.126Z,1.02
2019-01-29T00:31:44.939Z,1.02
2019-01-29T00:32:51.339Z,1.10
2019-01-29T00:33:57.647Z,1.22
2019-01-29T00:35:03.654Z,1.17
2019-01-29T00:36:10.000Z,1.11
2019-01-29T00:37:16.447Z,1.01
2019-01-29T00:38:22.490Z,0.98
2019-01-29T00:39:29.648Z,1.06
2019-01-29T00:40:35.691Z,1.09
2019-01-29T00:41:42.201Z,1.07
2019-01-29T00:42:48.186Z,1.07
2019-01-29T00:43:54.535Z,1.08
2019-01-29T00:45:00.900Z,1.16
2019-01-29T00:46:06.931Z,1.23
2019-01-29T00:47:12.980Z,1.36
2019-01-29T00:48:19.392Z,1.41
2019-01-29T00:49:25.729Z,1.20
2019-01-29T00:50:32.049Z,1.13
2019-01-29T00:51:38.399Z,1.12
2019-01-29T00:52:45.483Z,1.15
2019-01-29T00:53:51.859Z,1.13
2019-01-29T00:54:58.274Z,1.15
2019-01-29T00:56:03.933Z,1.08
2019-01-29T00:57:10.286Z,1.20
2019-01-29T00:58:16.663Z,1.30
2019-01-29T00:59:22.991Z,1.30
2019-01-29T01:00:29.366Z,1.28
2019-01-29T01:01:35.742Z,1.20
2019-01-29T01:02:42.171Z,1.30
2019-01-29T01:03:48.614Z,1.12
2019-01-29T01:04:54.969Z,1.04
2019-01-29T01:06:01.051Z,0.96
2019-01-29T01:07:07.485Z,1.07
2019-01-29T01:08:13.547Z,1.11
2019-01-29T01:09:20.097Z,1.04
2019-01-29T01:10:25.793Z,0.99
2019-01-29T01:11:31.763Z,0.85
2019-01-29T01:12:38.099Z,0.92
2019-01-29T01:13:44.406Z,0.78
2019-01-29T01:14:50.847Z,0.66
2019-01-29T01:15:56.811Z,0.69
2019-01-29T01:17:03.269Z,0.72
2019-01-29T01:18:09.314Z,0.61
2019-01-29T01:19:15.662Z,0.66
2019-01-29T01:20:22.009Z,0.54
2019-01-29T01:21:29.101Z,0.58
2019-01-29T01:22:35.984Z,0.56
2019-01-29T01:23:42.331Z,0.58
2019-01-29T01:24:48.315Z,0.60
2019-01-29T01:25:54.681Z,0.60
2019-01-29T01:27:00.683Z,0.53
2019-01-29T01:28:07.049Z,0.55
2019-01-29T01:29:13.409Z,0.57
2019-01-29T01:30:19.123Z,0.60
2019-01-29T01:31:26.185Z,0.71
2019-01-29T01:32:32.598Z,0.63
2019-01-29T01:33:38.922Z,0.58
2019-01-29T01:34:45.276Z,0.52
2019-01-29T01:35:51.606Z,0.57
2019-01-29T01:36:57.603Z,0.68
2019-01-29T01:38:03.730Z,0.75
2019-01-29T01:39:09.178Z,0.72
2019-01-29T01:40:19.578Z,0.74
2019-01-29T01:41:25.936Z,0.75
2019-01-29T01:42:33.026Z,0.75
2019-01-29T01:43:40.244Z,0.70
2019-01-29T01:44:46.664Z,0.66
2019-01-29T01:45:53.597Z,0.71
2019-01-29T01:46:59.954Z,0.73
2019-01-29T01:48:06.376Z,0.69
2019-01-29T01:49:12.811Z,0.81
2019-01-29T01:50:18.877Z,0.78
2019-01-29T01:51:25.228Z,0.66
2019-01-29T01:52:31.570Z,0.54
2019-01-29T01:53:37.925Z,0.63
2019-01-29T01:54:44.332Z,0.80
2019-01-29T01:55:50.750Z,0.60
2019-01-29T01:56:57.093Z,0.71
2019-01-29T01:58:03.497Z,0.74
2019-01-29T01:59:09.869Z,0.79
2019-01-29T02:00:19.224Z,0.71
2019-01-29T02:01:25.629Z,0.77
2019-01-29T02:02:32.010Z,0.92
2019-01-29T02:03:38.757Z,0.76
2019-01-29T02:04:45.632Z,0.89
2019-01-29T02:05:51.817Z,0.86
2019-01-29T02:06:58.142Z,0.80
2019-01-29T02:08:04.182Z,0.83
2019-01-29T02:09:09.892Z,0.86
2019-01-29T02:10:20.285Z,0.84
2019-01-29T02:11:26.656Z,0.85
2019-01-29T02:12:32.666Z,0.88
2019-01-29T02:13:39.077Z,0.96
2019-01-29T02:14:45.055Z,0.99
2019-01-29T02:15:51.398Z,1.00
2019-01-29T02:16:57.776Z,0.94
2019-01-29T02:18:03.832Z,1.02
2019-01-29T02:19:10.201Z,0.98
2019-01-29T02:20:15.861Z,0.92
2019-01-29T02:21:22.598Z,1.00
2019-01-29T02:22:28.934Z,1.00
2019-01-29T02:23:34.963Z,1.04
2019-01-29T02:24:41.261Z,1.08
2019-01-29T02:25:47.691Z,1.22
2019-01-29T02:26:54.000Z,1.24
2019-01-29T02:28:00.352Z,1.10
2019-01-29T02:29:06.721Z,1.07
2019-01-29T02:30:13.195Z,1.19
2019-01-29T02:31:19.519Z,1.23
2019-01-29T02:32:25.913Z,1.29
2019-01-29T02:33:32.317Z,1.26
2019-01-29T02:34:38.666Z,1.26
2019-01-29T02:35:45.001Z,1.31
2019-01-29T02:36:51.055Z,1.16
2019-01-29T02:37:57.441Z,1.16
2019-01-29T02:39:03.250Z,1.18
2019-01-29T02:40:08.868Z,1.24
2019-01-29T02:41:18.122Z,1.21
2019-01-29T02:42:24.114Z,1.17
2019-01-29T02:43:30.483Z,1.08
2019-01-29T02:44:37.186Z,1.10
2019-01-29T02:45:43.197Z,1.20
2019-01-29T02:46:49.548Z,1.41
2019-01-29T02:47:56.734Z,1.52
2019-01-29T02:49:03.170Z,1.38
2019-01-29T02:50:08.924Z,1.40
2019-01-29T02:51:15.287Z,1.35
2019-01-29T02:52:21.627Z,1.50
2019-01-29T02:53:28.026Z,1.51
2019-01-29T02:54:34.354Z,1.45
2019-01-29T02:55:40.703Z,1.30
2019-01-29T02:56:47.102Z,1.37
2019-01-29T02:57:53.465Z,1.33
2019-01-29T02:58:59.870Z,1.25
2019-01-29T03:00:05.517Z,1.27
2019-01-29T03:01:11.884Z,1.41
2019-01-29T03:02:18.277Z,1.40
2019-01-29T03:03:24.610Z,1.39
2019-01-29T03:04:30.961Z,1.41
2019-01-29T03:05:36.953Z,1.46
2019-01-29T03:06:43.309Z,1.58
2019-01-29T03:07:49.852Z,1.51
2019-01-29T03:08:56.279Z,1.36
2019-01-29T03:10:02.283Z,1.41
2019-01-29T03:11:08.630Z,1.40
2019-01-29T03:12:14.972Z,1.34
2019-01-29T03:13:21.330Z,1.29
2019-01-29T03:14:27.685Z,1.39
2019-01-29T03:15:33.726Z,1.49
2019-01-29T03:16:40.054Z,1.54
2019-01-29T03:17:45.804Z,1.63
2019-01-29T03:18:52.215Z,1.59
2019-01-29T03:19:58.528Z,1.65
2019-01-29T03:21:04.974Z,1.51
2019-01-29T03:22:11.305Z,1.51
2019-01-29T03:23:27.000Z,1.45
2019-01-29T03:24:24.149Z,1.53
2019-01-29T03:25:30.507Z,1.57
2019-01-29T03:26:36.939Z,1.54
2019-01-29T03:27:43.337Z,1.66
2019-01-29T03:28:50.494Z,1.60
2019-01-29T03:29:57.240Z,1.65
2019-01-29T03:31:03.227Z,1.62
2019-01-29T03:32:09.634Z,1.67
2019-01-29T03:33:16.058Z,1.54
2019-01-29T03:34:22.418Z,1.59
2019-01-29T03:35:28.439Z,1.76
2019-01-29T03:36:34.829Z,1.52
2019-01-29T03:37:40.782Z,1.62
2019-01-29T03:38:47.173Z,1.58
2019-01-29T03:39:53.571Z,1.44
2019-01-29T03:41:00.002Z,1.44
2019-01-29T03:42:05.685Z,1.50
2019-01-29T03:43:12.051Z,1.52
2019-01-29T03:44:18.497Z,1.50
2019-01-29T03:45:24.129Z,1.61
2019-01-29T03:46:30.145Z,1.61
2019-01-29T03:47:36.725Z,1.69
2019-01-29T03:48:43.321Z,1.56
2019-01-29T03:49:49.657Z,1.57
2019-01-29T03:50:56.117Z,1.57
2019-01-29T03:52:05.452Z,1.57
2019-01-29T03:53:11.886Z,1.57
2019-01-29T03:54:18.388Z,1.50
2019-01-29T03:55:24.918Z,1.59
2019-01-29T03:56:31.466Z,1.62
2019-01-29T03:57:37.972Z,1.63
2019-01-29T03:58:44.424Z,1.66
2019-01-29T03:59:50.981Z,1.66
2019-01-29T04:00:57.629Z,1.48
2019-01-29T04:02:04.045Z,1.60
2019-01-29T04:03:11.189Z,1.51
2019-01-29T04:04:17.633Z,1.54
2019-01-29T04:05:23.403Z,1.47
2019-01-29T04:06:29.935Z,1.39
2019-01-29T04:07:36.568Z,1.41
2019-01-29T04:08:43.016Z,1.40
2019-01-29T04:09:49.098Z,1.40
2019-01-29T04:10:55.686Z,1.65
2019-01-29T04:12:02.895Z,1.57
2019-01-29T04:13:09.869Z,1.41
2019-01-29T04:14:16.339Z,1.28
2019-01-29T04:15:22.206Z,1.16
2019-01-29T04:16:28.679Z,1.29
2019-01-29T04:17:34.825Z,1.45
2019-01-29T04:18:40.612Z,1.49
2019-01-29T04:19:46.923Z,1.38
2019-01-29T04:20:53.384Z,1.47
2019-01-29T04:21:59.515Z,1.48
2019-01-29T04:23:05.892Z,1.53
2019-01-29T04:24:12.466Z,1.36
2019-01-29T04:25:18.975Z,1.42
2019-01-29T04:26:25.577Z,1.54
2019-01-29T04:27:32.231Z,1.64
2019-01-29T04:28:38.701Z,1.43
2019-01-29T04:29:45.353Z,1.26
2019-01-29T04:30:51.785Z,1.37
2019-01-29T04:31:57.818Z,1.29
2019-01-29T04:33:07.763Z,1.44
2019-01-29T04:34:14.669Z,1.41
2019-01-29T04:35:21.172Z,1.31
2019-01-29T04:36:27.636Z,1.53
2019-01-29T04:37:34.142Z,1.48
2019-01-29T04:38:40.394Z,1.59
2019-01-29T04:39:46.987Z,1.58
2019-01-29T04:40:53.502Z,1.49
2019-01-29T04:41:59.869Z,1.49
2019-01-29T04:43:06.226Z,1.33
2019-01-29T04:44:12.762Z,1.29
2019-01-29T04:45:18.954Z,1.14
2019-01-29T04:46:25.437Z,1.06
2019-01-29T04:47:31.849Z,1.22
2019-01-29T04:48:38.396Z,1.25
2019-01-29T04:49:44.944Z,1.34
2019-01-29T04:50:51.429Z,1.27
2019-01-29T04:51:58.041Z,1.26
2019-01-29T04:53:04.175Z,1.25
2019-01-29T04:54:11.543Z,1.14
2019-01-29T04:55:17.507Z,1.16
2019-01-29T04:56:24.184Z,1.20
2019-01-29T04:57:30.761Z,1.10
2019-01-29T04:58:37.222Z,1.21
2019-01-29T04:59:43.644Z,1.29
2019-01-29T05:00:49.749Z,1.35
2019-01-29T05:01:55.924Z,1.16
2019-01-29T05:03:02.451Z,1.15
2019-01-29T05:04:09.031Z,1.21
2019-01-29T05:05:14.812Z,1.08
2019-01-29T05:06:20.949Z,0.98
2019-01-29T05:07:27.986Z,1.15
2019-01-29T05:08:34.420Z,1.21
2019-01-29T05:09:40.951Z,1.10
2019-01-29T05:10:47.448Z,1.15
2019-01-29T05:11:53.926Z,1.13
2019-01-29T05:13:00.469Z,1.19
2019-01-29T05:14:06.682Z,1.16
2019-01-29T05:15:15.816Z,1.01
2019-01-29T05:16:22.409Z,1.08
2019-01-29T05:17:28.912Z,1.12
2019-01-29T05:18:35.379Z,1.03
2019-01-29T05:19:41.876Z,1.00
2019-01-29T05:20:48.322Z,1.01
2019-01-29T05:21:54.837Z,0.98
2019-01-29T05:23:01.291Z,0.97
2019-01-29T05:24:07.475Z,0.95
2019-01-29T05:25:13.713Z,0.85
2019-01-29T05:26:19.853Z,0.92
2019-01-29T05:27:26.363Z,0.89
2019-01-29T05:28:32.883Z,0.92
2019-01-29T05:29:39.364Z,1.01
2019-01-29T05:30:45.839Z,0.90
2019-01-29T05:31:52.392Z,0.97
2019-01-29T05:32:58.753Z,1.14
2019-01-29T05:34:04.773Z,1.05
2019-01-29T05:35:10.476Z,1.04
2019-01-29T05:36:16.854Z,1.04
2019-01-29T05:37:23.195Z,1.18
2019-01-29T05:38:29.563Z,1.03
2019-01-29T05:39:35.950Z,1.09
2019-01-29T05:40:41.955Z,1.11
2019-01-29T05:41:48.286Z,1.18
2019-01-29T05:42:54.299Z,1.12
2019-01-29T05:44:00.747Z,1.19
2019-01-29T05:45:06.469Z,1.33
2019-01-29T05:46:12.854Z,1.26
2019-01-29T05:47:19.208Z,1.25
2019-01-29T05:48:25.503Z,1.22
2019-01-29T05:49:31.870Z,1.19
2019-01-29T05:50:38.249Z,1.28
2019-01-29T05:51:44.648Z,1.41
2019-01-29T05:52:50.303Z,1.50
2019-01-29T05:53:56.646Z,1.39
2019-01-29T05:55:03.378Z,1.50
2019-01-29T05:56:09.891Z,1.43
2019-01-29T05:57:16.289Z,1.39
2019-01-29T05:58:22.762Z,1.45
2019-01-29T05:59:29.378Z,1.37
2019-01-29T06:00:35.829Z,1.45
2019-01-29T06:01:42.333Z,1.42
2019-01-29T06:02:48.661Z,1.34
2019-01-29T06:03:54.388Z,1.36
2019-01-29T06:05:00.739Z,1.35
2019-01-29T06:06:06.404Z,1.20
2019-01-29T06:07:12.746Z,1.34
2019-01-29T06:08:19.071Z,1.29
2019-01-29T06:09:25.403Z,1.48
2019-01-29T06:10:31.773Z,1.34
2019-01-29T06:11:38.232Z,1.35
2019-01-29T06:12:44.284Z,1.44
2019-01-29T06:13:50.637Z,1.45
2019-01-29T06:14:57.021Z,1.40
2019-01-29T06:16:03.371Z,1.47
2019-01-29T06:17:09.726Z,1.65
2019-01-29T06:18:16.108Z,1.70
2019-01-29T06:19:22.969Z,1.67
2019-01-29T06:20:28.583Z,1.63
2019-01-29T06:21:35.091Z,1.60
2019-01-29T06:22:41.091Z,1.51
2019-01-29T06:23:47.417Z,1.46
2019-01-29T06:24:53.777Z,1.49
2019-01-29T06:26:00.130Z,1.48
2019-01-29T06:27:05.793Z,1.61
2019-01-29T06:28:12.128Z,1.65
2019-01-29T06:29:18.466Z,1.69
2019-01-29T06:30:24.230Z,1.79
2019-01-29T06:31:30.657Z,1.80
2019-01-29T06:32:36.655Z,1.75
2019-01-29T06:33:43.030Z,1.62
2019-01-29T06:34:49.410Z,1.59
2019-01-29T06:35:55.793Z,1.67
2019-01-29T06:37:02.160Z,1.65
2019-01-29T06:38:08.481Z,1.71
2019-01-29T06:39:14.493Z,1.65
2019-01-29T06:40:21.852Z,1.72
2019-01-29T06:41:28.753Z,1.67
2019-01-29T06:42:35.183Z,1.58
2019-01-29T06:43:41.620Z,1.49
2019-01-29T06:44:47.992Z,1.61
2019-01-29T06:45:54.992Z,1.72
2019-01-29T06:47:01.369Z,1.60
2019-01-29T06:48:07.394Z,1.67
2019-01-29T06:49:13.845Z,1.77
2019-01-29T06:50:20.389Z,1.73
2019-01-29T06:51:26.779Z,1.79
2019-01-29T06:52:33.096Z,1.79
2019-01-29T06:53:39.442Z,1.70
2019-01-29T06:54:45.807Z,1.72
2019-01-29T06:55:52.143Z,1.67
2019-01-29T06:56:58.549Z,1.71
2019-01-29T06:58:04.519Z,1.70
2019-01-29T06:59:10.927Z,1.68
2019-01-29T07:00:16.656Z,1.71
2019-01-29T07:01:23.821Z,1.79
2019-01-29T07:02:29.954Z,1.74
2019-01-29T07:03:36.317Z,1.66
2019-01-29T07:04:42.360Z,1.66
2019-01-29T07:05:48.425Z,1.70
2019-01-29T07:06:54.811Z,1.65
2019-01-29T07:08:01.329Z,1.65
2019-01-29T07:09:06.964Z,1.68
2019-01-29T07:10:13.564Z,1.84
2019-01-29T07:11:19.944Z,1.82
2019-01-29T07:12:25.966Z,1.70
2019-01-29T07:13:32.302Z,1.73
2019-01-29T07:14:38.700Z,1.80
2019-01-29T07:15:50.444Z,1.71
2019-01-29T07:16:56.621Z,1.75
2019-01-29T07:18:02.711Z,1.65
2019-01-29T07:19:08.807Z,1.65
2019-01-29T07:20:14.614Z,1.65
2019-01-29T07:21:21.030Z,1.55
2019-01-29T07:22:27.491Z,1.46
2019-01-29T07:23:34.792Z,1.48
2019-01-29T07:24:42.907Z,1.47
2019-01-29T07:25:47.558Z,1.35
2019-01-29T07:26:54.034Z,1.31
2019-01-29T07:28:00.420Z,1.26
2019-01-29T07:29:07.626Z,1.20
2019-01-29T07:30:13.309Z,1.32
2019-01-29T07:31:19.724Z,1.41
2019-01-29T07:32:26.122Z,1.37
2019-01-29T07:33:32.504Z,1.36
2019-01-29T07:34:38.898Z,1.39
2019-01-29T07:35:45.275Z,1.48
2019-01-29T07:36:51.358Z,1.52
2019-01-29T07:37:57.717Z,1.59
2019-01-29T07:39:04.846Z,1.51
2019-01-29T07:40:09.181Z,1.65
2019-01-29T07:41:15.560Z,1.60
2019-01-29T07:42:21.919Z,1.70
2019-01-29T07:43:28.476Z,1.81
2019-01-29T07:44:35.175Z,1.93
2019-01-29T07:45:41.168Z,1.88
2019-01-29T07:46:47.240Z,1.88
2019-01-29T07:47:53.644Z,1.68
2019-01-29T07:49:00.011Z,1.64
2019-01-29T07:50:05.636Z,1.62
2019-01-29T07:51:11.637Z,1.80
2019-01-29T07:52:18.032Z,1.97
2019-01-29T07:53:23.980Z,2.02
2019-01-29T07:54:33.332Z,2.03
2019-01-29T07:55:39.458Z,2.00
2019-01-29T07:56:45.806Z,1.96
2019-01-29T07:57:52.182Z,1.90
2019-01-29T07:58:58.553Z,1.99
2019-01-29T08:00:04.223Z,1.84
2019-01-29T08:01:10.205Z,1.94
2019-01-29T08:02:16.577Z,1.99
2019-01-29T08:03:22.919Z,2.10
2019-01-29T08:04:29.266Z,2.04
2019-01-29T08:05:35.613Z,2.11
2019-01-29T08:06:41.634Z,2.05
2019-01-29T08:07:48.055Z,2.02
2019-01-29T08:08:54.387Z,2.08
2019-01-29T08:10:00.801Z,2.12
2019-01-29T08:11:06.793Z,2.10
2019-01-29T08:12:13.163Z,2.13
2019-01-29T08:13:19.176Z,2.29
2019-01-29T08:14:25.493Z,2.32
2019-01-29T08:15:31.539Z,2.30
2019-01-29T08:16:38.714Z,2.27
2019-01-29T08:17:44.933Z,2.16
2019-01-29T08:18:51.750Z,2.33
2019-01-29T08:19:58.269Z,2.37
2019-01-29T08:21:04.313Z,2.37
2019-01-29T08:22:10.551Z,2.50
2019-01-29T08:23:17.068Z,2.40
2019-01-29T08:24:23.729Z,2.21
2019-01-29T08:25:30.389Z,2.25
2019-01-29T08:26:36.175Z,2.25
2019-01-29T08:27:41.888Z,2.30
2019-01-29T08:28:48.294Z,2.24
2019-01-29T08:29:54.710Z,2.18
2019-01-29T08:31:01.043Z,2.27
2019-01-29T08:32:07.094Z,2.13
2019-01-29T08:33:13.408Z,2.19
2019-01-29T08:34:19.814Z,2.20
2019-01-29T08:35:26.139Z,2.18
2019-01-29T08:36:32.496Z,2.18
2019-01-29T08:37:38.882Z,2.34
2019-01-29T08:38:45.393Z,2.43
2019-01-29T08:39:51.801Z,2.17
2019-01-29T08:40:58.213Z,2.35
2019-01-29T08:42:04.234Z,2.43
2019-01-29T08:43:10.589Z,2.41
2019-01-29T08:44:16.912Z,2.23
2019-01-29T08:45:22.599Z,2.28
2019-01-29T08:46:28.905Z,2.43
2019-01-29T08:47:36.036Z,2.54
2019-01-29T08:48:42.826Z,2.52
2019-01-29T08:49:48.441Z,2.35
2019-01-29T08:50:54.802Z,2.38
2019-01-29T08:52:01.149Z,2.41
2019-01-29T08:53:07.298Z,2.44
2019-01-29T08:54:13.656Z,2.44
2019-01-29T08:55:19.385Z,2.49
2019-01-29T08:56:25.334Z,2.45
2019-01-29T08:57:31.310Z,2.49
2019-01-29T08:58:37.669Z,2.54
2019-01-29T08:59:45.168Z,2.60
2019-01-29T09:00:51.183Z,2.72
2019-01-29T09:01:57.561Z,2.66
2019-01-29T09:03:03.670Z,2.68
2019-01-29T09:04:10.054Z,2.67
2019-01-29T09:05:15.657Z,2.59
2019-01-29T09:06:21.317Z,2.57
2019-01-29T09:07:27.945Z,2.63
2019-01-29T09:08:34.934Z,2.61
2019-01-29T09:09:41.259Z,2.75
2019-01-29T09:10:47.677Z,2.88
2019-01-29T09:11:54.124Z,2.67
2019-01-29T09:13:00.517Z,2.72
2019-01-29T09:14:06.486Z,2.57
2019-01-29T09:15:14.887Z,2.79
2019-01-29T09:16:21.268Z,2.79
2019-01-29T09:17:27.298Z,2.80
2019-01-29T09:18:33.722Z,2.88
2019-01-29T09:19:40.140Z,2.94
2019-01-29T09:20:46.445Z,2.80
2019-01-29T09:21:52.779Z,2.93
2019-01-29T09:22:59.112Z,2.90
2019-01-29T09:24:04.792Z,2.95
2019-01-29T09:25:19.215Z,2.80
2019-01-29T09:26:16.803Z,2.79
2019-01-29T09:27:23.211Z,2.74
2019-01-29T09:28:29.244Z,2.78
2019-01-29T09:29:35.655Z,2.88
2019-01-29T09:30:43.944Z,2.89
2019-01-29T09:31:48.798Z,3.07
2019-01-29T09:32:54.815Z,3.00
2019-01-29T09:34:01.163Z,3.11
2019-01-29T09:35:06.800Z,3.11
2019-01-29T09:36:13.122Z,3.15
2019-01-29T09:37:19.590Z,3.11
2019-01-29T09:38:27.257Z,3.06
2019-01-29T09:39:33.602Z,2.98
2019-01-29T09:40:39.586Z,3.05
2019-01-29T09:41:45.641Z,3.13
2019-01-29T09:42:51.281Z,3.12
2019-01-29T09:43:57.631Z,3.10
2019-01-29T09:45:03.553Z,2.88
2019-01-29T09:46:09.945Z,2.98
2019-01-29T09:47:16.311Z,2.88
2019-01-29T09:48:22.334Z,2.95
2019-01-29T09:49:28.641Z,2.92
2019-01-29T09:50:34.700Z,2.82
2019-01-29T09:51:41.346Z,2.82
2019-01-29T09:52:47.058Z,2.84
2019-01-29T09:53:53.439Z,2.73
2019-01-29T09:54:59.822Z,2.64
2019-01-29T09:56:06.174Z,2.62
2019-01-29T09:57:12.467Z,2.73
2019-01-29T09:58:18.845Z,2.88
2019-01-29T09:59:25.204Z,2.95
2019-01-29T10:00:33.631Z,3.02
2019-01-29T10:01:40.031Z,2.92
2019-01-29T10:02:46.132Z,3.02
2019-01-29T10:03:52.108Z,3.17
2019-01-29T10:04:58.488Z,3.18
2019-01-29T10:06:04.458Z,3.35
2019-01-29T10:07:10.772Z,3.27
2019-01-29T10:08:17.136Z,3.45
2019-01-29T10:09:24.061Z,3.44
2019-01-29T10:10:30.422Z,3.53
2019-01-29T10:11:36.822Z,3.49
2019-01-29T10:12:42.862Z,3.47
2019-01-29T10:13:49.218Z,3.56
2019-01-29T10:14:55.575Z,3.53
2019-01-29T10:16:01.564Z,3.47
2019-01-29T10:17:07.927Z,3.42
2019-01-29T10:18:13.965Z,3.57
2019-01-29T10:19:20.310Z,3.44
2019-01-29T10:20:26.374Z,3.46
2019-01-29T10:21:32.873Z,3.46
2019-01-29T10:22:38.859Z,3.45
2019-01-29T10:23:45.196Z,3.50
2019-01-29T10:24:51.521Z,3.62
2019-01-29T10:25:58.015Z,3.41
2019-01-29T10:27:04.089Z,3.45
2019-01-29T10:28:10.433Z,3.53
2019-01-29T10:29:16.460Z,3.46
2019-01-29T10:30:22.158Z,3.40
2019-01-29T10:31:28.479Z,3.33
2019-01-29T10:32:34.812Z,3.48
2019-01-29T10:33:41.915Z,3.69
2019-01-29T10:34:47.945Z,3.56
2019-01-29T10:35:54.397Z,3.69
2019-01-29T10:37:00.741Z,3.59
2019-01-29T10:38:06.676Z,3.53
2019-01-29T10:39:13.101Z,3.64
2019-01-29T10:40:19.623Z,3.63
2019-01-29T10:41:25.640Z,3.57
2019-01-29T10:42:32.135Z,3.53
2019-01-29T10:43:38.159Z,3.57
2019-01-29T10:44:44.577Z,3.46
2019-01-29T10:45:51.081Z,3.55
2019-01-29T10:46:57.451Z,3.69
2019-01-29T10:48:03.833Z,3.74
2019-01-29T10:49:09.517Z,3.74
2019-01-29T10:50:17.017Z,3.83
2019-01-29T10:51:23.351Z,3.90
2019-01-29T10:52:29.705Z,4.11
2019-01-29T10:53:36.114Z,4.20
2019-01-29T10:54:42.578Z,4.22
2019-01-29T10:55:48.903Z,4.34
2019-01-29T10:56:55.360Z,4.36
2019-01-29T10:58:01.365Z,4.44
2019-01-29T10:59:07.726Z,4.12
2019-01-29T11:00:15.073Z,4.02
2019-01-29T11:01:21.398Z,4.11
2019-01-29T11:02:27.368Z,4.17
2019-01-29T11:03:33.115Z,4.10
2019-01-29T11:04:39.133Z,4.01
2019-01-29T11:05:45.527Z,3.98
2019-01-29T11:06:51.851Z,3.92
2019-01-29T11:07:57.884Z,3.88
2019-01-29T11:09:03.902Z,3.91
2019-01-29T11:10:10.868Z,3.68
2019-01-29T11:11:17.203Z,3.64
2019-01-29T11:12:23.338Z,3.81
2019-01-29T11:13:29.669Z,3.74
2019-01-29T11:14:36.038Z,3.70
2019-01-29T11:15:41.676Z,3.64
2019-01-29T11:16:47.691Z,3.64
2019-01-29T11:17:53.673Z,3.81
2019-01-29T11:19:03.452Z,3.75
2019-01-29T11:20:08.403Z,3.87
2019-01-29T11:21:14.685Z,3.86
2019-01-29T11:22:21.038Z,3.82
2019-01-29T11:23:27.343Z,3.67
2019-01-29T11:24:33.027Z,3.69
2019-01-29T11:25:38.668Z,3.62
2019-01-29T11:26:45.048Z,3.56
2019-01-29T11:27:51.038Z,3.37
2019-01-29T11:28:57.071Z,3.46
2019-01-29T11:30:03.381Z,3.60
2019-01-29T11:31:09.796Z,3.68
2019-01-29T11:32:15.812Z,3.85
2019-01-29T11:33:22.119Z,3.74
2019-01-29T11:34:29.153Z,3.69
2019-01-29T11:35:35.134Z,3.65
2019-01-29T11:36:40.754Z,3.67
2019-01-29T11:37:47.143Z,3.58
2019-01-29T11:38:54.628Z,3.72
2019-01-29T11:40:01.469Z,3.74
2019-01-29T11:41:07.238Z,3.97
2019-01-29T11:42:13.676Z,4.06
2019-01-29T11:43:19.704Z,4.00
2019-01-29T11:44:26.096Z,4.07
2019-01-29T11:45:48.164Z,4.15
2019-01-29T11:46:54.165Z,4.13
2019-01-29T11:48:00.214Z,4.07
2019-01-29T11:49:05.902Z,4.11
2019-01-29T11:50:11.592Z,4.14
2019-01-29T11:51:17.954Z,4.10
2019-01-29T11:52:24.338Z,4.10
2019-01-29T11:53:30.645Z,4.05
2019-01-29T11:54:37.248Z,4.03
2019-01-29T11:55:43.625Z,4.23
2019-01-29T11:56:49.997Z,4.14
2019-01-29T11:57:56.030Z,4.20
2019-01-29T11:59:02.366Z,4.27
2019-01-29T12:00:14.027Z,4.13
2019-01-29T12:01:20.521Z,4.22
2019-01-29T12:02:28.544Z,4.11
2019-01-29T12:03:33.457Z,4.21
2019-01-29T12:04:39.871Z,4.31
2019-01-29T12:05:46.302Z,4.14
2019-01-29T12:06:52.278Z,4.22
2019-01-29T12:07:58.238Z,4.14
2019-01-29T12:09:03.643Z,3.97
2019-01-29T12:10:09.295Z,3.99
2019-01-29T12:11:15.643Z,4.06
2019-01-29T12:12:21.975Z,4.07
2019-01-29T12:13:28.442Z,4.06
2019-01-29T12:14:34.842Z,3.98
2019-01-29T12:15:41.185Z,4.10
2019-01-29T12:16:47.549Z,3.98
2019-01-29T12:17:53.894Z,4.16
2019-01-29T12:19:00.353Z,4.26
2019-01-29T12:20:06.042Z,4.26
2019-01-29T12:21:12.160Z,4.33
2019-01-29T12:22:18.447Z,4.10
2019-01-29T12:23:26.154Z,4.01
2019-01-29T12:24:33.090Z,4.10
2019-01-29T12:25:39.412Z,4.09
2019-01-29T12:26:45.755Z,4.20
2019-01-29T12:27:52.173Z,4.23
2019-01-29T12:28:58.518Z,4.01
2019-01-29T12:30:03.957Z,4.16
2019-01-29T12:31:09.970Z,4.20
2019-01-29T12:32:16.319Z,4.17
2019-01-29T12:33:22.064Z,4.09
2019-01-29T12:34:28.409Z,3.94
2019-01-29T12:35:34.370Z,3.98
2019-01-29T12:36:41.423Z,3.97
2019-01-29T12:37:47.876Z,3.88
2019-01-29T12:38:54.221Z,4.00
2019-01-29T12:40:00.591Z,4.04
2019-01-29T12:41:06.998Z,4.10
2019-01-29T12:42:13.388Z,3.99
2019-01-29T12:43:19.741Z,3.97
2019-01-29T12:44:26.503Z,4.07
2019-01-29T12:45:32.675Z,4.22
2019-01-29T12:46:39.099Z,4.02
2019-01-29T12:47:44.822Z,4.12
2019-01-29T12:48:51.230Z,4.19
2019-01-29T12:49:57.754Z,4.16
2019-01-29T12:51:03.473Z,4.10
2019-01-29T12:52:09.625Z,4.00
2019-01-29T12:53:15.749Z,4.01
2019-01-29T12:54:22.146Z,4.18
2019-01-29T12:55:28.116Z,4.07
2019-01-29T12:56:34.477Z,4.12
2019-01-29T12:57:40.152Z,4.15
2019-01-29T12:58:46.496Z,4.18
2019-01-29T12:59:52.947Z,4.14
2019-01-29T13:00:58.411Z,4.17
2019-01-29T13:02:04.017Z,4.17
2019-01-29T13:03:10.388Z,4.09
2019-01-29T13:04:16.827Z,3.96
2019-01-29T13:05:24.007Z,3.81
2019-01-29T13:06:31.791Z,3.78
2019-01-29T13:07:38.151Z,3.81
2019-01-29T13:08:45.231Z,4.06
2019-01-29T13:09:51.873Z,4.35
2019-01-29T13:10:58.237Z,4.37
2019-01-29T13:12:04.270Z,4.57
2019-01-29T13:13:10.048Z,4.78
2019-01-29T13:14:16.036Z,4.94
2019-01-29T13:15:22.479Z,5.03
2019-01-29T13:16:28.875Z,5.08
2019-01-29T13:17:35.213Z,5.19
2019-01-29T13:18:41.599Z,5.23
2019-01-29T13:19:47.963Z,5.28
2019-01-29T13:20:54.264Z,5.40
2019-01-29T13:22:00.586Z,5.38
2019-01-29T13:23:06.575Z,5.16
2019-01-29T13:24:12.969Z,5.12
2019-01-29T13:25:18.616Z,5.27
2019-01-29T13:26:30.126Z,5.39
2019-01-29T13:27:32.449Z,5.51
2019-01-29T13:28:39.478Z,5.27
2019-01-29T13:29:46.228Z,5.17
2019-01-29T13:30:52.576Z,4.98
2019-01-29T13:31:58.962Z,5.03
2019-01-29T13:33:05.333Z,5.03
2019-01-29T13:34:11.747Z,5.01
2019-01-29T13:35:17.436Z,5.08
2019-01-29T13:36:23.819Z,4.75
2019-01-29T13:37:30.174Z,4.69
2019-01-29T13:38:36.233Z,4.72
2019-01-29T13:39:42.286Z,4.79
2019-01-29T13:40:48.341Z,4.78
2019-01-29T13:41:54.663Z,4.85
2019-01-29T13:43:00.728Z,4.99
2019-01-29T13:44:06.006Z,5.23
2019-01-29T13:45:11.290Z,5.09
2019-01-29T13:46:16.853Z,5.19
2019-01-29T13:47:22.839Z,5.45
2019-01-29T13:48:28.905Z,5.32
2019-01-29T13:49:34.829Z,5.30
2019-01-29T13:50:43.788Z,5.30
2019-01-29T13:51:49.748Z,5.02
2019-01-29T13:52:55.690Z,4.98
2019-01-29T13:54:01.294Z,5.26
2019-01-29T13:55:06.607Z,5.47
2019-01-29T13:56:12.183Z,5.49
2019-01-29T13:57:17.738Z,5.46
2019-01-29T13:58:23.751Z,5.27
2019-01-29T13:59:29.649Z,5.10
2019-01-29T14:00:34.940Z,4.95
2019-01-29T14:01:40.921Z,4.76
2019-01-29T14:02:46.976Z,4.71
2019-01-29T14:03:52.911Z,4.63
2019-01-29T14:04:58.893Z,4.75
2019-01-29T14:06:04.159Z,4.64
2019-01-29T14:07:09.821Z,4.67
2019-01-29T14:08:15.456Z,4.48
2019-01-29T14:09:21.405Z,4.65
2019-01-29T14:10:27.390Z,4.24
2019-01-29T14:11:33.071Z,4.43
2019-01-29T14:12:38.332Z,4.39
2019-01-29T14:13:44.262Z,4.26
2019-01-29T14:14:50.197Z,4.28
2019-01-29T14:15:56.206Z,4.32
2019-01-29T14:17:02.210Z,4.20
2019-01-29T14:18:07.575Z,4.33
2019-01-29T14:19:13.535Z,4.44
2019-01-29T14:20:18.793Z,4.31
2019-01-29T14:21:24.773Z,4.36
2019-01-29T14:22:30.744Z,4.43
2019-01-29T14:23:36.346Z,4.51
2019-01-29T14:24:43.504Z,4.53
2019-01-29T14:25:47.985Z,4.33
2019-01-29T14:26:53.986Z,4.36
2019-01-29T14:27:59.914Z,4.25
2019-01-29T14:29:05.584Z,4.13
2019-01-29T14:30:12.481Z,4.26
2019-01-29T14:31:18.440Z,4.11
2019-01-29T14:32:24.140Z,4.16
2019-01-29T14:33:29.613Z,4.25
2019-01-29T14:34:35.541Z,4.15
2019-01-29T14:35:41.226Z,4.12
2019-01-29T14:36:47.190Z,4.19
2019-01-29T14:39:59.997Z,4.38
2019-01-29T14:41:05.627Z,4.29
2019-01-29T14:42:11.542Z,4.26
2019-01-29T14:43:23.500Z,4.33
2019-01-29T14:44:29.490Z,4.32
2019-01-29T14:45:35.511Z,4.12